Time;durP1;ratioP1;P1;durP2;ratioP2;P2;SDS_P1;SDS_P2;PMS_P1;PMS_P2;Temp;Humidity;BMP_temperature;BMP_pressure;BME280_temperature;BME280_humidity;BME280_pressure;Samples;Min_cycle;Max_cycle;Signal;HPM_P1;HPM_P2
2023/10/11 00:00:56;;;;;;;;;13.75;13.00;;;;;25.01;95.75;101194.38;2112276;27;46229;-53
2023/10/11 00:02:00;;;;;;;;;13.00;12.00;;;;;25.02;96.31;101196.13;2112389;27;47362;-55
2023/10/11 00:03:32;;;;;;;;;18.00;16.80;;;;;25.07;95.93;101199.38;2114331;27;46457;-56
2023/10/11 00:04:32;;;;;;;;;15.00;14.80;;;;;25.08;96.27;101198.41;2106134;27;46742;-54
2023/10/11 00:05:39;;;;;;;;;17.75;16.25;;;;;25.10;95.59;101196.44;2110949;27;46007;-55
2023/10/11 00:06:40;;;;;;;;;12.60;12.60;;;;;25.10;95.21;101196.44;2115314;27;46168;-56
2023/10/11 00:07:42;;;;;;;;;15.25;13.50;;;;;25.10;95.15;101196.44;2107891;27;46330;-55
2023/10/11 00:08:43;;;;;;;;;15.00;14.20;;;;;25.11;95.17;101200.88;2114111;27;46623;-57
2023/10/11 00:09:44;;;;;;;;;16.75;15.75;;;;;25.12;95.63;101202.59;2114242;27;46873;-54
2023/10/11 00:10:53;;;;;;;;;14.80;13.60;;;;;25.13;95.20;101201.63;2108865;27;45936;-56
2023/10/11 00:11:56;;;;;;;;;13.80;13.40;;;;;25.14;95.91;101203.34;2110042;27;46640;-56
2023/10/11 00:12:59;;;;;;;;;15.00;15.00;;;;;25.11;95.70;101209.88;2114305;27;46756;-53
2023/10/11 00:14:00;;;;;;;;;16.80;16.80;;;;;25.11;95.65;101211.75;2107157;27;46171;-53
2023/10/11 00:15:00;;;;;;;;;15.75;15.00;;;;;25.00;95.47;101214.34;2111690;27;45656;-56
2023/10/11 00:16:09;;;;;;;;;12.00;11.00;;;;;25.03;94.96;101212.31;2114273;27;46360;-56
2023/10/11 00:17:10;;;;;;;;;16.00;15.00;;;;;25.04;94.91;101221.34;2107384;27;46746;-56
2023/10/11 00:18:10;;;;;;;;;15.75;14.75;;;;;25.03;95.30;101216.88;2114509;27;46427;-57
2023/10/11 00:19:15;;;;;;;;;13.75;13.75;;;;;25.02;94.87;101213.28;2114587;27;46671;-56
2023/10/11 00:20:29;;;;;;;;;15.40;14.20;;;;;25.02;95.11;101215.13;2113952;27;47190;-55
2023/10/11 00:21:40;;;;;;;;;18.20;16.80;;;;;25.00;95.36;101214.34;2111299;27;46539;-57
2023/10/11 00:22:41;;;;;;;;;14.20;13.00;;;;;24.99;96.29;101213.47;2105979;28;46592;-57
2023/10/11 00:23:43;;;;;;;;;14.50;13.50;;;;;24.99;96.02;101216.19;2113248;27;46532;-57
2023/10/11 00:24:44;;;;;;;;;14.60;14.40;;;;;24.95;96.42;101221.00;2105326;27;46960;-54
2023/10/11 00:25:45;;;;;;;;;14.00;13.20;;;;;24.96;96.83;101219.16;2096417;28;46383;-56
2023/10/11 00:26:49;;;;;;;;;15.00;13.25;;;;;24.96;96.85;101221.88;2105258;27;46620;-55
2023/10/11 00:27:52;;;;;;;;;16.20;15.20;;;;;24.99;96.84;101224.34;2113628;27;46248;-55
2023/10/11 00:28:53;;;;;;;;;19.20;16.00;;;;;24.97;96.92;101217.28;2114155;27;46396;-58
2023/10/11 00:29:54;;;;;;;;;13.40;13.40;;;;;24.97;96.81;101220.88;2113556;27;46439;-57
2023/10/11 00:30:56;;;;;;;;;14.75;13.75;;;;;24.97;96.88;101229.03;2095066;28;46457;-56
2023/10/11 00:31:57;;;;;;;;;16.00;14.60;;;;;24.97;96.81;101228.16;2087669;28;46704;-57
2023/10/11 00:32:57;;;;;;;;;19.25;18.25;;;;;24.98;96.96;101225.31;2096450;28;46171;-56
2023/10/11 00:33:57;;;;;;;;;15.00;14.00;;;;;25.00;96.60;101225.22;2104732;28;46211;-53
2023/10/11 00:34:57;;;;;;;;;16.50;14.50;;;;;24.91;96.59;101222.22;2113079;27;46277;-57
2023/10/11 00:36:01;;;;;;;;;16.50;14.75;;;;;24.89;97.23;101217.84;2113764;27;46066;-56
2023/10/11 00:37:02;;;;;;;;;17.60;15.80;;;;;24.90;97.22;101219.59;2113891;27;46837;-56
2023/10/11 00:38:04;;;;;;;;;14.60;14.20;;;;;24.85;97.92;101219.94;2113820;27;46708;-56
2023/10/11 00:39:07;;;;;;;;;17.20;17.20;;;;;24.85;98.00;101219.06;2113904;27;46746;-57
2023/10/11 00:40:08;;;;;;;;;13.40;13.40;;;;;24.83;97.81;101211.03;2114714;27;46606;-57
2023/10/11 00:41:18;;;;;;;;;16.60;16.00;;;;;24.88;97.39;101214.28;2113965;27;46506;-56
2023/10/11 00:42:18;;;;;;;;;15.00;13.80;;;;;24.88;97.07;101221.56;2113558;27;46480;-55
2023/10/11 00:43:32;;;;;;;;;13.25;13.25;;;;;24.88;97.69;101211.56;2113935;27;46848;-55
2023/10/11 00:44:32;;;;;;;;;15.40;14.80;;;;;24.92;97.20;101215.81;2113929;27;46355;-54
2023/10/11 00:45:36;;;;;;;;;14.50;14.50;;;;;24.90;97.25;101212.34;2113947;27;45905;-56
2023/10/11 00:46:44;;;;;;;;;16.60;16.00;;;;;24.92;96.92;101214.94;2105551;28;46111;-56
2023/10/11 00:47:45;;;;;;;;;14.60;13.60;;;;;24.91;96.86;101205.94;2106410;27;46320;-53
2023/10/11 00:48:53;;;;;;;;;13.20;12.40;;;;;24.94;96.76;101210.25;2109539;27;46471;-54
2023/10/11 00:49:53;;;;;;;;;11.20;10.00;;;;;24.93;96.53;101212.09;2113733;27;45840;-57
2023/10/11 00:50:55;;;;;;;;;15.00;13.75;;;;;24.92;96.64;101213.09;2113606;27;46248;-56
2023/10/11 00:51:55;;;;;;;;;15.20;14.60;;;;;24.94;96.57;101212.97;2112692;27;46961;-56
2023/10/11 00:52:57;;;;;;;;;13.50;12.00;;;;;24.95;95.95;101217.41;2106220;27;46205;-55
2023/10/11 00:54:03;;;;;;;;;13.00;10.80;;;;;24.94;96.20;101216.56;2108978;27;46912;-56
2023/10/11 00:55:09;;;;;;;;;13.40;10.00;;;;;24.93;96.09;101212.09;2114080;27;46466;-56
2023/10/11 00:56:09;;;;;;;;;13.00;11.40;;;;;24.95;95.84;101202.00;2113878;27;46822;-54
2023/10/11 00:57:12;;;;;;;;;13.25;12.75;;;;;24.97;95.16;101201.00;2103677;28;46442;-53
2023/10/11 00:58:15;;;;;;;;;10.80;10.80;;;;;24.96;94.80;101200.13;2104132;28;46384;-55
2023/10/11 00:59:20;;;;;;;;;10.40;9.40;;;;;24.94;94.37;101200.25;2108948;27;47082;-55
2023/10/11 01:00:23;;;;;;;;;13.20;11.60;;;;;24.93;94.81;101197.66;2109456;27;46722;-53
2023/10/11 01:01:24;;;;;;;;;12.80;11.00;;;;;24.93;94.53;101184.94;2104101;28;46481;-57
2023/10/11 01:02:27;;;;;;;;;12.25;12.25;;;;;24.94;94.12;101191.25;2104258;28;46240;-56
2023/10/11 01:03:31;;;;;;;;;9.40;9.20;;;;;24.94;94.39;101191.25;2104303;28;47037;-56
2023/10/11 01:04:33;;;;;;;;;14.60;13.60;;;;;24.93;94.25;101187.66;2104770;28;46632;-56
2023/10/11 01:05:43;;;;;;;;;12.00;12.00;;;;;24.94;93.39;101185.81;2103439;27;46738;-56
2023/10/11 01:06:43;;;;;;;;;12.80;12.80;;;;;24.93;93.17;101186.81;2109485;27;46702;-56
2023/10/11 01:07:50;;;;;;;;;10.75;10.25;;;;;24.91;93.58;101192.34;2103086;28;46271;-56
2023/10/11 01:08:52;;;;;;;;;11.40;10.80;;;;;24.92;92.93;101180.50;2088019;28;46149;-56
2023/10/11 01:09:52;;;;;;;;;14.40;11.20;;;;;24.94;93.17;101185.81;2089188;28;47048;-57
2023/10/11 01:10:52;;;;;;;;;11.25;11.00;;;;;24.96;92.77;101183.84;2095582;28;46968;-56
2023/10/11 01:11:53;;;;;;;;;9.00;9.00;;;;;24.95;92.65;101185.69;2100723;28;45424;-57
2023/10/11 01:12:53;;;;;;;;;14.00;11.25;;;;;24.94;92.76;101185.81;2104352;28;46743;-56
2023/10/11 01:13:54;;;;;;;;;12.25;11.25;;;;;24.93;92.67;101181.38;2105546;27;45863;-56
2023/10/11 01:14:57;;;;;;;;;9.00;8.75;;;;;24.94;92.89;101183.09;2104359;28;46382;-54
2023/10/11 01:15:57;;;;;;;;;13.00;11.00;;;;;24.93;92.83;101178.66;2104358;28;46457;-55
2023/10/11 01:16:59;;;;;;;;;11.00;8.00;;;;;24.93;92.63;101184.09;2103978;28;46480;-56
2023/10/11 01:17:59;;;;;;;;;10.80;10.60;;;;;24.92;92.43;101183.22;2104431;28;46486;-53
2023/10/11 01:19:00;;;;;;;;;13.00;12.25;;;;;24.90;92.26;101182.47;2104112;28;46205;-56
2023/10/11 01:20:01;;;;;;;;;11.50;10.50;;;;;24.91;92.63;101183.34;2095454;28;46340;-54
2023/10/11 01:21:05;;;;;;;;;13.20;11.20;;;;;24.91;92.46;101184.19;2095922;28;46938;-54
2023/10/11 01:22:06;;;;;;;;;10.00;8.80;;;;;24.92;91.91;101179.63;2095606;28;46181;-55
2023/10/11 01:23:06;;;;;;;;;11.50;10.75;;;;;24.90;92.40;101182.47;2095204;28;46284;-53
2023/10/11 01:24:10;;;;;;;;;12.00;11.25;;;;;24.95;92.35;101182.13;2095934;28;46313;-55
2023/10/11 01:25:18;;;;;;;;;9.40;8.60;;;;;24.96;91.56;101178.41;2070016;28;47030;-55
2023/10/11 01:26:19;;;;;;;;;11.80;9.60;;;;;24.97;91.67;101177.44;2072551;28;47059;-56
2023/10/11 01:27:21;;;;;;;;;12.50;10.00;;;;;24.97;91.76;101171.13;2054346;28;46318;-54
2023/10/11 01:28:22;;;;;;;;;9.60;9.60;;;;;24.94;91.13;101170.38;2061771;28;45846;-56
2023/10/11 01:29:22;;;;;;;;;14.25;11.75;;;;;24.96;91.33;101173.00;2072805;28;46032;-53
2023/10/11 01:30:26;;;;;;;;;13.00;11.25;;;;;24.95;91.36;101166.69;2079249;28;46264;-55
2023/10/11 01:31:32;;;;;;;;;11.40;11.40;;;;;24.95;91.08;101174.84;2078903;28;46354;-56
2023/10/11 01:32:41;;;;;;;;;8.40;8.40;;;;;24.89;91.39;101167.13;2079003;28;46026;-54
2023/10/11 01:33:43;;;;;;;;;9.00;8.00;;;;;24.93;90.96;101170.50;2078071;28;46683;-56
2023/10/11 01:34:44;;;;;;;;;9.60;9.60;;;;;24.91;91.00;101161.63;2076811;28;45994;-56
2023/10/11 01:35:47;;;;;;;;;13.00;13.00;;;;;24.87;91.05;101166.38;2070666;28;46850;-54
2023/10/11 01:36:48;;;;;;;;;9.60;8.40;;;;;24.86;91.53;101170.09;2063313;28;46905;-54
2023/10/11 01:37:49;;;;;;;;;10.00;10.00;;;;;24.85;91.83;101165.63;2070884;28;46393;-55
2023/10/11 01:38:50;;;;;;;;;10.80;10.80;;;;;24.84;91.85;101166.63;2078745;28;46638;-55
2023/10/11 01:39:50;;;;;;;;;12.50;11.00;;;;;24.84;91.81;101163.91;2079271;28;46073;-54
2023/10/11 01:40:54;;;;;;;;;12.75;11.00;;;;;24.86;91.47;101163.78;2078851;28;45618;-52
2023/10/11 01:41:58;;;;;;;;;13.20;10.60;;;;;24.84;91.40;101155.75;2077798;28;46609;-54
2023/10/11 01:42:59;;;;;;;;;13.00;13.00;;;;;24.83;91.60;101156.75;2078833;28;46764;-53
2023/10/11 01:43:59;;;;;;;;;8.00;7.80;;;;;24.90;91.83;101149.88;2074018;28;46436;-55
2023/10/11 01:45:00;;;;;;;;;10.50;10.00;;;;;24.95;90.90;101149.53;2079265;28;45209;-56
2023/10/11 01:46:01;;;;;;;;;10.25;10.00;;;;;24.98;91.03;101151.16;2078811;28;47123;-53
2023/10/11 01:47:01;;;;;;;;;11.00;9.75;;;;;24.99;90.53;101152.88;2079516;28;45718;-56
2023/10/11 01:48:03;;;;;;;;;11.00;10.50;;;;;24.99;90.10;101148.31;2078529;28;46704;-56
2023/10/11 01:49:07;;;;;;;;;10.80;10.40;;;;;24.98;90.47;101148.44;2078920;28;46413;-55
2023/10/11 01:50:08;;;;;;;;;12.50;10.50;;;;;24.98;90.53;101143.88;2079171;28;47025;-55
2023/10/11 01:51:09;;;;;;;;;13.75;13.75;;;;;25.00;90.32;101141.91;2079873;28;46209;-55
2023/10/11 01:52:12;;;;;;;;;11.60;9.40;;;;;25.01;90.32;101145.50;2078463;28;46694;-55
2023/10/11 01:53:14;;;;;;;;;15.60;13.40;;;;;25.00;90.50;101141.03;2079052;28;46472;-55
2023/10/11 01:54:22;;;;;;;;;13.00;12.20;;;;;25.00;90.24;101143.75;2087689;28;46606;-56
2023/10/11 01:55:23;;;;;;;;;12.40;12.40;;;;;25.00;90.12;101135.59;2087467;28;46970;-57
2023/10/11 01:56:24;;;;;;;;;12.25;10.75;;;;;25.00;90.61;101139.19;2087024;28;46214;-56
2023/10/11 01:57:25;;;;;;;;;12.80;12.20;;;;;25.00;90.39;101138.31;2075405;28;46411;-53
2023/10/11 01:58:25;;;;;;;;;11.20;10.20;;;;;25.00;90.69;101141.91;2079095;28;46446;-52
2023/10/11 01:59:26;;;;;;;;;11.75;10.25;;;;;24.99;90.23;101134.72;2107707;27;46934;-57
2023/10/11 02:00:29;;;;;;;;;9.25;9.25;;;;;24.98;89.82;101129.44;2113389;27;45579;-56
2023/10/11 02:01:38;;;;;;;;;14.60;11.80;;;;;24.97;90.39;101131.28;2113123;27;46319;-54
2023/10/11 02:02:47;;;;;;;;;11.80;10.80;;;;;24.99;90.15;101125.72;2112639;27;47285;-55
2023/10/11 02:04:03;;;;;;;;;11.75;10.50;;;;;24.97;89.69;101131.28;2113503;27;46465;-53
2023/10/11 02:05:05;;;;;;;;;13.80;11.60;;;;;24.96;90.06;101134.97;2113897;27;45870;-56
2023/10/11 02:06:05;;;;;;;;;13.00;13.00;;;;;24.95;89.51;101125.09;2113092;27;46543;-56
2023/10/11 02:07:06;;;;;;;;;9.25;9.25;;;;;24.94;89.89;101132.38;2113449;27;46205;-56
2023/10/11 02:08:06;;;;;;;;;13.00;11.33;;;;;24.94;89.98;101131.50;2110748;27;46518;-55
2023/10/11 02:09:09;;;;;;;;;10.75;10.50;;;;;24.92;89.66;101126.19;2113534;27;46538;-56
2023/10/11 02:10:13;;;;;;;;;10.60;9.80;;;;;24.93;89.62;101135.22;2113190;27;46492;-54
2023/10/11 02:11:16;;;;;;;;;11.00;11.00;;;;;24.91;89.78;101135.34;2113512;27;46428;-54
2023/10/11 02:12:19;;;;;;;;;9.60;9.60;;;;;24.91;90.04;101134.47;2113126;27;46335;-56
2023/10/11 02:13:20;;;;;;;;;14.60;12.80;;;;;24.89;90.40;101129.13;2113297;27;46440;-55
2023/10/11 02:14:22;;;;;;;;;11.00;10.80;;;;;24.91;90.23;101131.75;2113612;27;46647;-56
2023/10/11 02:15:29;;;;;;;;;11.50;11.50;;;;;24.91;90.12;101126.31;2111649;27;46427;-55
2023/10/11 02:16:30;;;;;;;;;10.00;10.00;;;;;24.91;89.73;101124.47;2113497;27;47058;-55
2023/10/11 02:17:33;;;;;;;;;10.00;10.00;;;;;24.92;90.00;101126.19;2113731;27;46301;-55
2023/10/11 02:18:33;;;;;;;;;12.60;12.00;;;;;24.90;89.98;101125.44;2112475;27;46580;-54
2023/10/11 02:19:34;;;;;;;;;14.25;13.75;;;;;24.91;89.75;101123.59;2112978;27;46340;-56
2023/10/11 02:20:43;;;;;;;;;12.50;11.25;;;;;24.90;89.65;101122.75;2105160;27;46489;-55
2023/10/11 02:21:46;;;;;;;;;11.20;11.00;;;;;24.88;89.60;101127.38;2109161;27;46656;-57
2023/10/11 02:22:55;;;;;;;;;13.60;12.00;;;;;24.82;89.84;101119.72;2113325;27;46622;-55
2023/10/11 02:23:57;;;;;;;;;13.60;12.00;;;;;24.81;90.22;101123.41;2113447;27;46741;-57
2023/10/11 02:24:59;;;;;;;;;12.20;11.20;;;;;24.84;90.34;101122.31;2109922;27;45643;-56
2023/10/11 02:25:59;;;;;;;;;13.40;12.20;;;;;24.84;90.34;101125.03;2104590;28;45638;-53
2023/10/11 02:27:00;;;;;;;;;8.00;7.25;;;;;24.83;89.89;101126.03;2105246;27;46351;-57
2023/10/11 02:28:00;;;;;;;;;12.00;12.00;;;;;24.82;89.98;101118.84;2106758;27;46386;-57
2023/10/11 02:29:00;;;;;;;;;12.50;11.50;;;;;24.82;90.55;101122.44;2113267;27;46749;-55
2023/10/11 02:30:06;;;;;;;;;13.50;12.25;;;;;24.82;90.77;101116.16;2112888;27;46669;-55
2023/10/11 02:31:08;;;;;;;;;11.40;11.00;;;;;24.83;90.14;101120.59;2113450;27;46679;-55
2023/10/11 02:32:08;;;;;;;;;10.00;8.80;;;;;24.81;90.33;101120.72;2104657;28;46009;-54
2023/10/11 02:33:11;;;;;;;;;10.33;10.00;;;;;24.81;90.22;101114.41;2102747;28;46485;-56
2023/10/11 02:34:14;;;;;;;;;2.40;1.80;;;;;24.79;90.67;101114.53;2095559;28;46668;-56
2023/10/11 02:35:18;;;;;;;;;13.20;12.80;;;;;24.80;90.30;101113.56;2095951;27;46971;-57
2023/10/11 02:36:18;;;;;;;;;12.40;12.40;;;;;24.79;90.44;101111.81;2113478;27;46391;-57
2023/10/11 02:37:22;;;;;;;;;9.00;9.00;;;;;24.78;90.50;101110.09;2095267;28;46496;-55
2023/10/11 02:38:23;;;;;;;;;12.60;11.40;;;;;24.78;90.16;101111.94;2097978;28;45642;-53
2023/10/11 02:39:31;;;;;;;;;9.20;9.20;;;;;24.67;90.88;101118.16;2108594;27;46458;-57
2023/10/11 02:40:37;;;;;;;;;14.00;12.20;;;;;24.64;90.97;101108.38;2114898;27;47041;-55
2023/10/11 02:41:37;;;;;;;;;9.40;8.80;;;;;24.65;90.82;101109.28;2114848;27;46478;-54
2023/10/11 02:42:38;;;;;;;;;14.00;12.25;;;;;24.64;91.10;101112.94;2115131;27;46339;-56
2023/10/11 02:43:49;;;;;;;;;9.75;9.75;;;;;24.61;90.78;101116.75;2115471;27;46449;-56
2023/10/11 02:44:49;;;;;;;;;7.00;7.00;;;;;24.61;90.90;101110.47;2114790;27;46141;-53
2023/10/11 02:45:50;;;;;;;;;11.50;11.50;;;;;24.61;90.92;101111.31;2113751;27;46315;-54
2023/10/11 02:46:51;;;;;;;;;10.50;10.50;;;;;24.61;90.95;101118.59;2097292;28;46406;-54
2023/10/11 02:48:03;;;;;;;;;9.60;9.40;;;;;24.59;91.08;101113.28;2103187;28;46376;-54
2023/10/11 02:49:18;;;;;;;;;12.00;12.00;;;;;24.58;91.05;101114.28;2112822;27;46956;-53
2023/10/11 02:50:22;;;;;;;;;10.80;10.80;;;;;24.56;91.11;101112.66;2106544;28;46888;-56
2023/10/11 02:51:25;;;;;;;;;9.40;9.40;;;;;24.54;91.21;101112.78;2114210;27;45717;-55
2023/10/11 02:52:35;;;;;;;;;12.60;11.80;;;;;24.54;91.63;101117.34;2113862;27;46516;-54
2023/10/11 02:53:36;;;;;;;;;10.60;9.00;;;;;24.49;91.64;101117.66;2115491;27;46504;-57
2023/10/11 02:54:39;;;;;;;;;11.75;10.75;;;;;24.52;91.41;101122.88;2115232;27;46632;-50
2023/10/11 02:55:39;;;;;;;;;11.20;10.20;;;;;24.53;91.58;101121.03;2114109;27;46535;-55
2023/10/11 02:56:49;;;;;;;;;12.50;12.25;;;;;24.53;91.69;101121.91;2105604;28;46294;-55
2023/10/11 02:58:05;;;;;;;;;13.60;12.00;;;;;24.53;91.60;101129.16;2106272;27;46707;-54
2023/10/11 02:59:07;;;;;;;;;12.80;11.40;;;;;24.51;91.91;101126.53;2114086;27;47104;-55
2023/10/11 03:00:23;;;;;;;;;11.00;9.40;;;;;24.50;91.96;101130.25;2107046;27;46414;-56
2023/10/11 03:01:25;;;;;;;;;11.40;11.40;;;;;24.48;92.13;101129.50;2111555;27;46605;-54
2023/10/11 03:02:30;;;;;;;;;12.40;12.40;;;;;24.47;92.31;101130.47;2114038;27;46046;-56
2023/10/11 03:03:31;;;;;;;;;11.25;11.00;;;;;24.47;92.21;101132.31;2110081;27;46400;-54
2023/10/11 03:04:35;;;;;;;;;12.75;11.75;;;;;24.45;92.17;101129.72;2112717;27;46344;-55
2023/10/11 03:05:37;;;;;;;;;13.80;12.60;;;;;24.45;92.23;101127.00;2114309;27;46689;-54
2023/10/11 03:06:38;;;;;;;;;10.00;8.20;;;;;24.45;92.27;101131.56;2114034;27;46918;-55
2023/10/11 03:07:39;;;;;;;;;9.75;8.75;;;;;24.46;92.46;101125.16;2114582;27;46688;-56
2023/10/11 03:08:43;;;;;;;;;12.60;12.60;;;;;24.45;92.46;101127.00;2109093;27;46354;-55
2023/10/11 03:09:44;;;;;;;;;12.40;11.40;;;;;24.44;92.35;101127.13;2112253;27;47119;-54
2023/10/11 03:10:53;;;;;;;;;11.50;11.25;;;;;24.45;92.17;101123.44;2114478;27;46596;-54
2023/10/11 03:11:56;;;;;;;;;9.20;9.20;;;;;24.43;92.52;101117.25;2114465;27;46791;-56
2023/10/11 03:12:56;;;;;;;;;10.80;10.80;;;;;24.42;92.61;101126.38;2110142;27;46761;-54
2023/10/11 03:13:57;;;;;;;;;13.25;13.25;;;;;24.38;92.40;101120.28;2106825;27;46300;-56
2023/10/11 03:15:04;;;;;;;;;12.50;10.75;;;;;24.38;92.51;101117.56;2109935;27;46720;-55
2023/10/11 03:16:11;;;;;;;;;16.40;14.00;;;;;24.35;92.28;101121.38;2106305;27;46316;-55
2023/10/11 03:17:15;;;;;;;;;8.60;8.60;;;;;24.34;92.72;101122.38;2114852;27;46780;-55
2023/10/11 03:18:15;;;;;;;;;13.20;11.80;;;;;24.32;92.77;101121.63;2114235;27;47062;-56
2023/10/11 03:19:16;;;;;;;;;12.50;11.25;;;;;24.31;92.73;101113.59;2117994;27;46669;-56
2023/10/11 03:21:35;;;;;;;;;11.00;11.00;;;;;24.31;92.85;101119.00;2110575;27;46550;-55
2023/10/11 03:22:36;;;;;;;;;12.75;11.00;;;;;24.30;92.47;101111.84;2114301;27;47073;-56
2023/10/11 03:23:43;;;;;;;;;11.00;11.00;;;;;24.31;92.58;101109.03;2114400;27;46229;-55
2023/10/11 03:24:43;;;;;;;;;10.80;10.00;;;;;24.30;92.58;101111.84;2115133;27;46516;-58
2023/10/11 03:25:49;;;;;;;;;10.25;9.75;;;;;24.28;92.27;101103.81;2114282;27;46867;-55
2023/10/11 03:26:51;;;;;;;;;12.80;11.80;;;;;24.29;92.53;101110.97;2114769;27;45717;-54
2023/10/11 03:27:52;;;;;;;;;11.40;10.20;;;;;24.27;92.79;101110.22;2112404;27;46268;-56
2023/10/11 03:28:58;;;;;;;;;10.00;10.00;;;;;24.26;92.56;101108.44;2108027;27;45522;-56
2023/10/11 03:29:59;;;;;;;;;14.20;13.00;;;;;24.27;92.95;101112.06;2113917;27;46465;-55
2023/10/11 03:31:00;;;;;;;;;11.00;10.20;;;;;24.27;92.46;101103.91;2113959;27;46669;-55
2023/10/11 03:32:04;;;;;;;;;12.20;12.20;;;;;24.24;92.67;101102.28;2115645;27;46581;-55
2023/10/11 03:33:06;;;;;;;;;13.00;13.00;;;;;24.22;92.70;101106.94;2114957;27;46547;-54
2023/10/11 03:34:17;;;;;;;;;10.60;10.60;;;;;24.22;92.65;101104.22;2115287;27;45528;-53
2023/10/11 03:35:19;;;;;;;;;11.60;11.60;;;;;24.22;92.95;101106.06;2119067;27;46913;-55
2023/10/11 03:36:21;;;;;;;;;11.40;11.40;;;;;24.19;92.98;101101.75;2111066;27;46330;-54
2023/10/11 03:37:21;;;;;;;;;11.60;11.00;;;;;24.18;92.41;101104.56;2114565;27;46510;-50
2023/10/11 03:38:22;;;;;;;;;13.00;12.25;;;;;24.14;92.83;101106.66;2114381;27;45924;-56
2023/10/11 03:39:40;;;;;;;;;11.80;11.60;;;;;24.16;92.60;101103.81;2114371;27;47114;-55
2023/10/11 03:41:07;;;;;;;;;14.20;12.20;;;;;24.16;92.28;101110.13;2107307;27;46773;-53
2023/10/11 03:42:14;;;;;;;;;13.00;12.20;;;;;24.13;92.22;101109.44;2111197;27;46337;-56
2023/10/11 03:43:16;;;;;;;;;12.80;10.20;;;;;24.13;92.81;101104.88;2114541;27;46787;-55
2023/10/11 03:44:20;;;;;;;;;11.00;9.00;;;;;24.12;93.20;101108.59;2114155;27;46278;-55
2023/10/11 03:45:20;;;;;;;;;12.40;12.20;;;;;24.14;93.44;101103.94;2114373;27;45342;-55
2023/10/11 03:46:34;;;;;;;;;15.25;13.50;;;;;24.13;93.46;101102.19;2114296;27;46966;-55
2023/10/11 03:47:35;;;;;;;;;11.40;11.40;;;;;24.12;94.02;101107.72;2096996;28;45986;-56
2023/10/11 03:48:51;;;;;;;;;14.40;12.80;;;;;24.12;94.22;101108.59;2103981;27;45832;-56
2023/10/11 03:49:51;;;;;;;;;11.80;11.00;;;;;24.11;94.26;101100.56;2114493;27;45203;-55
2023/10/11 03:50:52;;;;;;;;;13.25;12.50;;;;;24.09;94.18;101095.25;2113921;27;46152;-56
2023/10/11 03:51:52;;;;;;;;;11.75;11.50;;;;;24.08;94.43;101090.81;2117643;27;46396;-55
2023/10/11 03:53:06;;;;;;;;;12.25;12.00;;;;;24.07;94.59;101092.66;2106177;27;46894;-55
2023/10/11 03:54:06;;;;;;;;;13.40;11.80;;;;;24.07;94.52;101086.38;2112254;27;46193;-56
2023/10/11 03:55:09;;;;;;;;;9.50;9.50;;;;;24.06;94.49;101080.09;2105013;28;46424;-55
2023/10/11 03:56:10;;;;;;;;;11.80;10.80;;;;;24.04;94.55;101082.03;2105294;27;46449;-56
2023/10/11 03:57:10;;;;;;;;;14.00;13.75;;;;;24.02;94.79;101078.56;2113937;27;46856;-55
2023/10/11 03:59:38;;;;;;;;;9.40;9.40;;;;;24.01;94.18;101084.97;2114056;27;47671;-57
2023/10/11 04:00:46;;;;;;;;;12.80;11.80;;;;;24.00;94.77;101082.34;2111756;27;46440;-56
2023/10/11 04:01:47;;;;;;;;;11.20;10.40;;;;;24.00;95.26;101077.78;2105155;28;46915;-56
2023/10/11 04:02:48;;;;;;;;;14.00;12.60;;;;;24.00;95.01;101085.94;2106044;27;46516;-56
2023/10/11 04:03:49;;;;;;;;;13.00;12.75;;;;;23.99;95.40;101084.19;2114299;27;46588;-53
2023/10/11 04:04:49;;;;;;;;;13.40;10.00;;;;;24.00;95.27;101085.06;2113903;27;46846;-56
2023/10/11 04:05:50;;;;;;;;;12.25;10.25;;;;;24.01;95.38;101082.28;2114216;27;47069;-56
2023/10/11 04:06:51;;;;;;;;;12.75;12.75;;;;;24.01;94.97;101086.78;2114454;27;45574;-52
2023/10/11 04:07:53;;;;;;;;;12.80;11.60;;;;;24.03;95.23;101093.00;2112508;27;46806;-57
2023/10/11 04:09:01;;;;;;;;;14.00;13.20;;;;;24.03;95.28;101090.28;2113979;27;46573;-56
2023/10/11 04:10:09;;;;;;;;;12.40;12.00;;;;;24.01;95.34;101082.28;2112659;27;46710;-56
2023/10/11 04:12:36;;;;;;;;;10.80;9.40;;;;;23.97;95.38;101085.28;2076324;28;46820;-55
2023/10/11 04:13:39;;;;;;;;;11.00;11.00;;;;;23.96;95.63;101081.72;2074993;28;46414;-57
2023/10/11 04:14:44;;;;;;;;;11.80;11.80;;;;;23.96;95.37;101079.00;2079266;28;46582;-56
2023/10/11 04:15:52;;;;;;;;;14.20;12.40;;;;;23.96;95.54;101080.84;2073093;28;46568;-55
2023/10/11 04:17:00;;;;;;;;;13.00;13.00;;;;;23.96;95.93;101078.13;2072313;28;46132;-56
2023/10/11 04:18:14;;;;;;;;;12.60;12.40;;;;;23.96;96.08;101080.84;2070936;28;47106;-56
2023/10/11 04:19:15;;;;;;;;;10.60;10.60;;;;;23.96;96.11;101070.88;2079543;28;46586;-54
2023/10/11 04:20:19;;;;;;;;;14.25;12.25;;;;;23.95;95.98;101069.13;2079310;28;46806;-55
2023/10/11 04:22:31;;;;;;;;;14.60;10.00;;;;;23.96;96.15;101078.13;2071621;28;46358;-55
2023/10/11 04:23:35;;;;;;;;;12.20;11.00;;;;;23.94;96.19;101078.25;2081000;28;46541;-54
2023/10/11 04:24:38;;;;;;;;;14.20;12.60;;;;;23.95;96.67;101079.97;2086229;28;46386;-56
2023/10/11 04:25:39;;;;;;;;;12.20;12.20;;;;;23.96;96.71;101079.00;2078780;28;46730;-55
2023/10/11 04:26:40;;;;;;;;;12.50;12.50;;;;;23.97;96.14;101080.72;2081019;28;46547;-53
2023/10/11 04:28:43;;;;;;;;;12.20;12.20;;;;;23.98;96.28;101076.19;2075650;28;47045;-57
2023/10/11 04:29:44;;;;;;;;;13.75;12.75;;;;;24.00;96.43;101080.50;2075259;28;46363;-56
2023/10/11 04:30:44;;;;;;;;;12.75;9.75;;;;;23.99;96.26;101077.91;2088097;28;46176;-55
2023/10/11 04:33:01;;;;;;;;;12.60;10.80;;;;;23.97;95.78;101077.16;2071948;28;46509;-56
2023/10/11 04:34:11;;;;;;;;;12.25;11.50;;;;;23.99;95.73;101086.91;2071152;28;46495;-56
2023/10/11 04:35:36;;;;;;;;;10.00;10.00;;;;;23.97;95.84;101077.16;2073654;28;47022;-55
2023/10/11 04:36:42;;;;;;;;;7.20;5.60;;;;;23.96;96.04;101075.44;2071776;28;46345;-56
2023/10/11 04:37:52;;;;;;;;;13.20;10.60;;;;;23.94;96.10;101083.66;2072135;28;45552;-56
2023/10/11 04:39:01;;;;;;;;;12.20;12.20;;;;;23.93;94.77;101079.22;2071421;28;46936;-55
2023/10/11 04:40:23;;;;;;;;;13.80;11.80;;;;;23.91;94.62;101081.19;2067579;28;46115;-54
2023/10/11 04:41:24;;;;;;;;;11.20;11.20;;;;;23.89;94.08;101077.72;2075749;28;46464;-55
2023/10/11 04:42:28;;;;;;;;;9.00;9.00;;;;;23.88;93.78;101077.81;2078080;28;46238;-57
2023/10/11 04:43:29;;;;;;;;;11.50;11.50;;;;;23.87;93.70;101068.81;2087099;28;46560;-55
2023/10/11 04:44:54;;;;;;;;;9.75;9.50;;;;;23.86;93.51;101071.63;2080653;28;46756;-56
2023/10/11 04:45:59;;;;;;;;;9.50;9.25;;;;;23.83;93.10;101072.72;2074611;28;46891;-56
2023/10/11 04:47:00;;;;;;;;;10.00;9.50;;;;;23.82;93.20;101078.25;2076488;28;46872;-55
2023/10/11 04:48:00;;;;;;;;;8.00;8.00;;;;;23.80;93.04;101075.66;2079907;28;46773;-56
2023/10/11 04:49:17;;;;;;;;;11.00;11.00;;;;;23.82;93.02;101076.41;2078708;28;47016;-55
2023/10/11 04:50:17;;;;;;;;;8.20;8.20;;;;;23.81;93.33;101080.09;2096473;27;46534;-56
2023/10/11 04:52:25;;;;;;;;;7.80;7.40;;;;;23.83;93.16;101083.56;2113957;27;46284;-55
2023/10/11 04:53:32;;;;;;;;;9.20;8.60;;;;;23.82;93.18;101089.09;2113934;27;46380;-55
2023/10/11 04:54:36;;;;;;;;;14.80;12.60;;;;;23.80;93.47;101091.94;2113857;27;46527;-55
2023/10/11 04:55:37;;;;;;;;;11.20;10.20;;;;;23.80;93.19;101097.34;2113408;27;46385;-55
2023/10/11 04:58:06;;;;;;;;;12.60;10.00;;;;;23.75;93.90;101116.63;2110613;27;46792;-55
2023/10/11 04:59:08;;;;;;;;;12.20;10.40;;;;;23.74;94.34;101114.88;2108640;27;46371;-56
2023/10/11 05:00:10;;;;;;;;;11.60;11.60;;;;;23.73;94.29;101112.28;2111661;27;46669;-57
2023/10/11 05:01:11;;;;;;;;;10.00;8.80;;;;;23.73;94.52;101110.44;2112719;27;46267;-56